• Join FlightAware (Why Join?)
  • Login
  • US Flag 
10:57AM EDT


 

Airport Tracker/Info


-or-


 

Live Flight TrackerFlight Track Log ✈ C-GMWT ✈ 27-Jun-2012 ✈ CYQT - CKM8

Flight Track Log - Related Links

Times and Time Zones

All times are in EDT time to prevent confusion due to time zone crossing. See the C-GMWT flight status page for this flight to view local times or setup timezone preferences in your user account.

Time Position Orientation Groundspeed Altitude Reporting Facility
EDT Latitude Longitude Course Direction KTS MPH feet Rate Location/Type
05:41PM 48.3500 -89.2667 69° East 140 161 800  Level Winnipeg Center
05:42PM 48.3667 -89.2000 45° Northeast 160 184 2,100 1,200 Climbing Winnipeg Center
05:43PM 48.4000 -89.1500 360° North 170 196 3,300 1,140 Climbing Winnipeg Center
05:44PM 48.4500 -89.1500 348° North 190 219 4,400 1,260 Climbing Winnipeg Center
05:45PM 48.5000 -89.1667 348° North 180 207 5,900 1,140 Climbing Winnipeg Center
05:46PM 48.5500 -89.1833 348° North 180 207 6,700 900 Climbing Winnipeg Center
05:47PM 48.6000 -89.2000 12° North 180 207 7,700 900 Climbing Winnipeg Center
05:48PM 48.6500 -89.1833 348° North 180 207 8,600 840 Climbing Winnipeg Center
05:49PM 48.7000 -89.2000 348° North 180 207 9,400 720 Climbing Winnipeg Center
05:50PM 48.7500 -89.2167 348° North 180 207 10,100 660 Climbing Winnipeg Center
05:51PM 48.8000 -89.2333 351° North 190 219 10,800 720 Climbing Winnipeg Center
05:52PM 48.8667 -89.2500 348° North 190 219 11,600 720 Climbing Winnipeg Center
05:53PM 48.9167 -89.2667 348° North 190 219 12,300 600 Climbing Winnipeg Center
05:54PM 48.9667 -89.2833 360° North 190 219 12,900 600 Climbing Winnipeg Center
05:55PM 49.0167 -89.2833 348° North 190 219 13,600 600 Climbing Winnipeg Center
05:56PM 49.0667 -89.3000 348° North 190 219 14,200 540 Climbing Winnipeg Center
05:57PM 49.1167 -89.3167 348° North 190 219 14,700 480 Climbing Winnipeg Center
05:58PM 49.1667 -89.3333 348° North 190 219 15,200 540 Climbing Winnipeg Center
05:59PM 49.2167 -89.3500 348° North 190 219 15,800 600 Climbing Winnipeg Center
06:00PM 49.2667 -89.3667 348° North 200 230 16,500 600 Climbing Winnipeg Center
06:01PM 49.3167 -89.3833 348° North 190 219 17,100 540 Climbing Winnipeg Center
06:02PM 49.3667 -89.4000 360° North 190 219 17,600 540 Climbing Winnipeg Center
06:03PM 49.4167 -89.4000 348° North 190 219 18,200 540 Climbing Winnipeg Center
06:04PM 49.4667 -89.4167 351° North 190 219 18,700 420 Climbing Winnipeg Center
06:05PM 49.5333 -89.4333 348° North 190 219 19,100 420 Climbing Winnipeg Center
06:06PM 49.5833 -89.4500 348° North 190 219 19,600 360 Climbing Winnipeg Center
06:07PM 49.6333 -89.4667 348° North 190 219 19,900 180 Climbing Winnipeg Center
06:08PM 49.6833 -89.4833 351° North 190 219 20,000  Climbing Winnipeg Center
06:09PM 49.7500 -89.5000 348° North 200 230 20,000  Level Winnipeg Center
06:10PM 49.8000 -89.5167 348° North 210 242 20,000  Level Winnipeg Center
06:11PM 49.8500 -89.5333 351° North 210 242 20,000  Level Winnipeg Center
06:12PM 49.9167 -89.5500 348° North 220 253 20,000  Level Winnipeg Center
06:13PM 49.9667 -89.5667 351° North 220 253 20,000  Level Winnipeg Center
06:14PM 50.0333 -89.5833 348° North 220 253 20,000  Level Winnipeg Center
06:15PM 50.0833 -89.6000 353° North 220 253 20,000  Level Winnipeg Center
06:16PM 50.1667 -89.6167 351° North 230 265 20,000  Level Winnipeg Center
06:17PM 50.2333 -89.6333 351° North 220 253 20,000  Level Winnipeg Center
06:18PM 50.3000 -89.6500 348° North 230 265 20,000  Level Winnipeg Center
06:19PM 50.3500 -89.6667 351° North 230 265 20,000  Level Winnipeg Center
06:20PM 50.4167 -89.6833 348° North 230 265 20,000  Level Winnipeg Center
06:21PM 50.4667 -89.7000 351° North 230 265 20,000  Level Winnipeg Center
06:22PM 50.5333 -89.7167 351° North 230 265 20,000  Level Winnipeg Center
06:23PM 50.6000 -89.7333 348° North 230 265 20,000  Level Winnipeg Center
06:24PM 50.6500 -89.7500 351° North 230 265 20,000  Level Winnipeg Center
06:25PM 50.7167 -89.7667 351° North 230 265 20,000  Level Winnipeg Center
06:26PM 50.7833 -89.7833 351° North 230 265 20,000  Level Winnipeg Center
06:27PM 50.8500 -89.8000 351° North 240 276 20,000  Level Winnipeg Center
06:28PM 50.9167 -89.8167 335° Northwest 230 265 20,000  Level Winnipeg Center
06:29PM 50.9833 -89.8667 351° North 240 276 20,000  Level Winnipeg Center
06:30PM 51.0500 -89.8833 360° North 230 265 20,000  Level Winnipeg Center
06:31PM 51.1167 -89.8833 337° Northwest 240 276 20,000  Level Winnipeg Center
06:32PM 51.1667 -89.9167 351° North 240 276 20,000  Level Winnipeg Center
06:33PM 51.2333 -89.9333 351° North 230 265 20,000  Level Winnipeg Center
06:34PM 51.3000 -89.9500 351° North 240 276 20,000  Level Winnipeg Center
06:35PM 51.3667 -89.9667 348° North 240 276 20,000  Level Winnipeg Center
06:36PM 51.4167 -89.9833 353° North 240 276 20,000  Level Winnipeg Center
06:37PM 51.5000 -90.0000 343° North 240 276 20,000  Level Winnipeg Center
06:38PM 51.5667 -90.0333 351° North 240 276 20,000  Level Winnipeg Center
06:39PM 51.6333 -90.0500 351° North 230 265 20,000  Level Winnipeg Center
06:40PM 51.7000 -90.0667 351° North 240 276 20,000  Level Winnipeg Center
06:41PM 51.7667 -90.0833 351° North 250 288 20,000 -720 Level Winnipeg Center
06:42PM 51.8333 -90.1000 345° North 250 288 18,600 -1,440 Descending Winnipeg Center
06:50PM 52.2424 -90.2744 351° North  Level FlightAware Approximate
06:51PM 52.2993 -90.2883 351° North  Level FlightAware Approximate
06:52PM 52.3563 -90.3022 348° North  Level FlightAware Approximate
06:53PM 52.4122 -90.3224 353° North  Level FlightAware Approximate
06:54PM 52.4694 -90.3339 353° North  Level FlightAware Approximate
06:55PM 52.5266 -90.3453 350° North  Level FlightAware Approximate
06:56PM 52.5833 -90.3611 350° North  Level FlightAware Approximate